sensor_id;sensor_type;location;lat;lon;timestamp;P1;durP1;ratioP1;P2;durP2;ratioP2
12425;SDS011;6277;49.824;9.562;2023-02-28T00:02:19;1.92;;;1.48;;
12425;SDS011;6277;49.824;9.562;2023-02-28T00:04:45;2.25;;;0.98;;
12425;SDS011;6277;49.824;9.562;2023-02-28T00:07:17;1.88;;;1.20;;
12425;SDS011;6277;49.824;9.562;2023-02-28T00:09:43;1.60;;;1.25;;
12425;SDS011;6277;49.824;9.562;2023-02-28T00:12:09;1.90;;;1.35;;
12425;SDS011;6277;49.824;9.562;2023-02-28T00:14:35;1.77;;;1.40;;
12425;SDS011;6277;49.824;9.562;2023-02-28T00:17:01;2.53;;;1.35;;
12425;SDS011;6277;49.824;9.562;2023-02-28T00:19:27;2.13;;;1.50;;
12425;SDS011;6277;49.824;9.562;2023-02-28T00:21:52;1.70;;;1.25;;
12425;SDS011;6277;49.824;9.562;2023-02-28T00:24:18;2.85;;;1.50;;
12425;SDS011;6277;49.824;9.562;2023-02-28T00:26:43;2.60;;;1.23;;
12425;SDS011;6277;49.824;9.562;2023-02-28T00:29:09;2.30;;;1.30;;
12425;SDS011;6277;49.824;9.562;2023-02-28T00:31:34;2.08;;;1.40;;
12425;SDS011;6277;49.824;9.562;2023-02-28T00:34:00;2.00;;;1.33;;
12425;SDS011;6277;49.824;9.562;2023-02-28T00:36:25;1.95;;;1.38;;
12425;SDS011;6277;49.824;9.562;2023-02-28T00:38:51;2.63;;;1.50;;
12425;SDS011;6277;49.824;9.562;2023-02-28T00:41:17;1.67;;;1.30;;
12425;SDS011;6277;49.824;9.562;2023-02-28T00:43:42;1.60;;;1.40;;
12425;SDS011;6277;49.824;9.562;2023-02-28T00:46:08;1.88;;;1.48;;
12425;SDS011;6277;49.824;9.562;2023-02-28T00:48:34;2.17;;;1.40;;
12425;SDS011;6277;49.824;9.562;2023-02-28T00:50:59;2.00;;;1.25;;
12425;SDS011;6277;49.824;9.562;2023-02-28T00:53:25;2.05;;;1.48;;
12425;SDS011;6277;49.824;9.562;2023-02-28T00:55:51;4.10;;;1.60;;
12425;SDS011;6277;49.824;9.562;2023-02-28T00:58:17;2.30;;;1.52;;
12425;SDS011;6277;49.824;9.562;2023-02-28T01:00:43;2.20;;;1.60;;
12425;SDS011;6277;49.824;9.562;2023-02-28T01:03:13;2.00;;;1.42;;
12425;SDS011;6277;49.824;9.562;2023-02-28T01:05:40;2.03;;;1.40;;
12425;SDS011;6277;49.824;9.562;2023-02-28T01:08:06;1.95;;;1.38;;
12425;SDS011;6277;49.824;9.562;2023-02-28T01:10:32;3.03;;;1.60;;
12425;SDS011;6277;49.824;9.562;2023-02-28T01:12:57;1.73;;;1.52;;
12425;SDS011;6277;49.824;9.562;2023-02-28T01:15:23;2.28;;;1.17;;
12425;SDS011;6277;49.824;9.562;2023-02-28T01:17:49;2.15;;;1.50;;
12425;SDS011;6277;49.824;9.562;2023-02-28T01:20:14;2.13;;;1.35;;
12425;SDS011;6277;49.824;9.562;2023-02-28T01:22:40;1.88;;;1.55;;
12425;SDS011;6277;49.824;9.562;2023-02-28T01:25:06;2.88;;;1.60;;
12425;SDS011;6277;49.824;9.562;2023-02-28T01:27:31;2.65;;;1.58;;
12425;SDS011;6277;49.824;9.562;2023-02-28T01:29:58;1.63;;;1.40;;
12425;SDS011;6277;49.824;9.562;2023-02-28T01:32:24;1.90;;;1.48;;
12425;SDS011;6277;49.824;9.562;2023-02-28T01:34:49;2.38;;;1.38;;
12425;SDS011;6277;49.824;9.562;2023-02-28T01:37:15;2.28;;;1.48;;
12425;SDS011;6277;49.824;9.562;2023-02-28T01:39:40;2.83;;;1.50;;
12425;SDS011;6277;49.824;9.562;2023-02-28T01:42:07;1.77;;;1.30;;
12425;SDS011;6277;49.824;9.562;2023-02-28T01:47:33;2.28;;;1.60;;
12425;SDS011;6277;49.824;9.562;2023-02-28T01:50:03;2.45;;;1.65;;
12425;SDS011;6277;49.824;9.562;2023-02-28T01:52:32;2.03;;;1.38;;
12425;SDS011;6277;49.824;9.562;2023-02-28T01:54:59;2.70;;;1.30;;
12425;SDS011;6277;49.824;9.562;2023-02-28T01:57:29;2.08;;;1.60;;
12425;SDS011;6277;49.824;9.562;2023-02-28T02:00:03;1.42;;;1.33;;
12425;SDS011;6277;49.824;9.562;2023-02-28T02:02:33;2.55;;;1.60;;
12425;SDS011;6277;49.824;9.562;2023-02-28T02:10:00;1.38;;;1.23;;
12425;SDS011;6277;49.824;9.562;2023-02-28T02:18:29;1.80;;;1.48;;
12425;SDS011;6277;49.824;9.562;2023-02-28T02:26:51;1.77;;;1.40;;
12425;SDS011;6277;49.824;9.562;2023-02-28T02:29:37;1.70;;;1.30;;
12425;SDS011;6277;49.824;9.562;2023-02-28T02:37:37;2.42;;;1.27;;
12425;SDS011;6277;49.824;9.562;2023-02-28T02:40:13;1.60;;;1.25;;
12425;SDS011;6277;49.824;9.562;2023-02-28T02:43:01;1.63;;;1.20;;
12425;SDS011;6277;49.824;9.562;2023-02-28T02:48:08;2.15;;;1.20;;
12425;SDS011;6277;49.824;9.562;2023-02-28T02:50:38;1.55;;;1.20;;
12425;SDS011;6277;49.824;9.562;2023-02-28T02:53:07;1.88;;;1.50;;
12425;SDS011;6277;49.824;9.562;2023-02-28T02:55:37;2.10;;;1.50;;
12425;SDS011;6277;49.824;9.562;2023-02-28T02:58:08;2.10;;;1.42;;
12425;SDS011;6277;49.824;9.562;2023-02-28T03:00:41;2.13;;;1.70;;
12425;SDS011;6277;49.824;9.562;2023-02-28T03:05:47;2.15;;;1.60;;
12425;SDS011;6277;49.824;9.562;2023-02-28T03:08:15;2.38;;;1.40;;
12425;SDS011;6277;49.824;9.562;2023-02-28T03:10:42;2.75;;;1.60;;
12425;SDS011;6277;49.824;9.562;2023-02-28T03:27:23;2.17;;;1.50;;
12425;SDS011;6277;49.824;9.562;2023-02-28T03:30:10;3.15;;;1.70;;
12425;SDS011;6277;49.824;9.562;2023-02-28T03:33:34;2.42;;;1.90;;
12425;SDS011;6277;49.824;9.562;2023-02-28T03:35:43;2.38;;;1.50;;
12425;SDS011;6277;49.824;9.562;2023-02-28T03:38:19;2.78;;;1.73;;
12425;SDS011;6277;49.824;9.562;2023-02-28T03:40:55;2.25;;;1.52;;
12425;SDS011;6277;49.824;9.562;2023-02-28T03:43:28;2.60;;;1.55;;
12425;SDS011;6277;49.824;9.562;2023-02-28T03:45:58;2.25;;;1.58;;
12425;SDS011;6277;49.824;9.562;2023-02-28T03:48:49;2.55;;;1.90;;
12425;SDS011;6277;49.824;9.562;2023-02-28T03:51:17;1.75;;;1.42;;
12425;SDS011;6277;49.824;9.562;2023-02-28T03:53:49;2.28;;;1.85;;
12425;SDS011;6277;49.824;9.562;2023-02-28T03:56:38;3.17;;;1.50;;
12425;SDS011;6277;49.824;9.562;2023-02-28T03:59:16;2.22;;;1.92;;
12425;SDS011;6277;49.824;9.562;2023-02-28T04:01:48;2.03;;;1.60;;
12425;SDS011;6277;49.824;9.562;2023-02-28T04:04:14;2.63;;;1.70;;
12425;SDS011;6277;49.824;9.562;2023-02-28T04:06:41;3.25;;;2.10;;
12425;SDS011;6277;49.824;9.562;2023-02-28T04:09:09;2.80;;;2.00;;
12425;SDS011;6277;49.824;9.562;2023-02-28T04:14:03;2.38;;;2.08;;
12425;SDS011;6277;49.824;9.562;2023-02-28T04:16:30;4.10;;;2.20;;
12425;SDS011;6277;49.824;9.562;2023-02-28T04:18:58;2.38;;;1.90;;
12425;SDS011;6277;49.824;9.562;2023-02-28T04:21:28;2.83;;;1.95;;
12425;SDS011;6277;49.824;9.562;2023-02-28T04:23:54;2.90;;;1.90;;
12425;SDS011;6277;49.824;9.562;2023-02-28T04:26:20;4.60;;;1.95;;
12425;SDS011;6277;49.824;9.562;2023-02-28T04:28:46;4.78;;;2.25;;
12425;SDS011;6277;49.824;9.562;2023-02-28T04:31:11;2.70;;;1.83;;
12425;SDS011;6277;49.824;9.562;2023-02-28T04:33:37;2.97;;;2.10;;
12425;SDS011;6277;49.824;9.562;2023-02-28T04:36:07;2.63;;;1.73;;
12425;SDS011;6277;49.824;9.562;2023-02-28T04:38:34;2.45;;;2.00;;
12425;SDS011;6277;49.824;9.562;2023-02-28T04:41:01;3.00;;;1.88;;
12425;SDS011;6277;49.824;9.562;2023-02-28T04:43:27;4.13;;;1.90;;
12425;SDS011;6277;49.824;9.562;2023-02-28T04:45:53;2.72;;;2.05;;
12425;SDS011;6277;49.824;9.562;2023-02-28T04:48:22;2.78;;;1.98;;
12425;SDS011;6277;49.824;9.562;2023-02-28T04:50:48;2.92;;;1.92;;
12425;SDS011;6277;49.824;9.562;2023-02-28T04:53:14;3.20;;;2.00;;
12425;SDS011;6277;49.824;9.562;2023-02-28T04:55:39;4.03;;;2.60;;
12425;SDS011;6277;49.824;9.562;2023-02-28T04:58:05;4.00;;;1.70;;
12425;SDS011;6277;49.824;9.562;2023-02-28T05:00:31;2.97;;;1.85;;
12425;SDS011;6277;49.824;9.562;2023-02-28T05:02:56;2.38;;;1.88;;
12425;SDS011;6277;49.824;9.562;2023-02-28T05:05:22;2.38;;;1.77;;
12425;SDS011;6277;49.824;9.562;2023-02-28T05:07:47;2.03;;;1.63;;
12425;SDS011;6277;49.824;9.562;2023-02-28T05:10:13;5.35;;;1.80;;
12425;SDS011;6277;49.824;9.562;2023-02-28T05:12:38;2.53;;;1.90;;
12425;SDS011;6277;49.824;9.562;2023-02-28T05:15:04;2.17;;;1.73;;
12425;SDS011;6277;49.824;9.562;2023-02-28T05:17:30;2.67;;;1.92;;
12425;SDS011;6277;49.824;9.562;2023-02-28T05:19:56;3.25;;;1.75;;
12425;SDS011;6277;49.824;9.562;2023-02-28T05:22:21;2.63;;;1.85;;
12425;SDS011;6277;49.824;9.562;2023-02-28T05:24:47;2.65;;;1.88;;
12425;SDS011;6277;49.824;9.562;2023-02-28T05:27:12;3.05;;;1.70;;
12425;SDS011;6277;49.824;9.562;2023-02-28T05:29:38;3.00;;;1.80;;
12425;SDS011;6277;49.824;9.562;2023-02-28T05:32:10;2.90;;;1.73;;
12425;SDS011;6277;49.824;9.562;2023-02-28T05:34:37;3.13;;;1.80;;
12425;SDS011;6277;49.824;9.562;2023-02-28T05:37:03;3.65;;;1.75;;
12425;SDS011;6277;49.824;9.562;2023-02-28T05:39:29;2.78;;;1.80;;
12425;SDS011;6277;49.824;9.562;2023-02-28T05:41:55;2.10;;;1.60;;
12425;SDS011;6277;49.824;9.562;2023-02-28T05:44:20;3.60;;;1.85;;
12425;SDS011;6277;49.824;9.562;2023-02-28T05:46:46;2.13;;;1.60;;
12425;SDS011;6277;49.824;9.562;2023-02-28T05:49:11;1.98;;;1.52;;
12425;SDS011;6277;49.824;9.562;2023-02-28T05:51:37;2.83;;;1.90;;
12425;SDS011;6277;49.824;9.562;2023-02-28T05:54:04;2.58;;;1.55;;
12425;SDS011;6277;49.824;9.562;2023-02-28T05:56:30;2.08;;;1.40;;
12425;SDS011;6277;49.824;9.562;2023-02-28T05:58:56;3.00;;;2.00;;
12425;SDS011;6277;49.824;9.562;2023-02-28T06:01:23;2.70;;;1.73;;
12425;SDS011;6277;49.824;9.562;2023-02-28T06:03:49;2.35;;;1.75;;
12425;SDS011;6277;49.824;9.562;2023-02-28T06:06:15;3.15;;;1.90;;
12425;SDS011;6277;49.824;9.562;2023-02-28T06:08:41;2.90;;;1.50;;
12425;SDS011;6277;49.824;9.562;2023-02-28T06:11:08;3.20;;;2.28;;
12425;SDS011;6277;49.824;9.562;2023-02-28T06:13:33;3.35;;;1.88;;
12425;SDS011;6277;49.824;9.562;2023-02-28T06:16:02;2.78;;;1.60;;
12425;SDS011;6277;49.824;9.562;2023-02-28T06:18:28;2.00;;;1.55;;
12425;SDS011;6277;49.824;9.562;2023-02-28T06:20:54;2.03;;;1.70;;
12425;SDS011;6277;49.824;9.562;2023-02-28T06:23:20;2.88;;;1.70;;
12425;SDS011;6277;49.824;9.562;2023-02-28T06:25:46;2.30;;;1.80;;
12425;SDS011;6277;49.824;9.562;2023-02-28T06:28:14;4.22;;;2.10;;
12425;SDS011;6277;49.824;9.562;2023-02-28T06:30:40;3.00;;;1.80;;
12425;SDS011;6277;49.824;9.562;2023-02-28T06:33:05;2.58;;;1.77;;
12425;SDS011;6277;49.824;9.562;2023-02-28T06:35:31;2.25;;;1.70;;
12425;SDS011;6277;49.824;9.562;2023-02-28T06:37:56;3.53;;;1.80;;
12425;SDS011;6277;49.824;9.562;2023-02-28T06:40:22;2.05;;;1.55;;
12425;SDS011;6277;49.824;9.562;2023-02-28T06:42:48;2.90;;;1.80;;
12425;SDS011;6277;49.824;9.562;2023-02-28T06:45:13;2.97;;;1.90;;
12425;SDS011;6277;49.824;9.562;2023-02-28T06:47:39;2.92;;;1.60;;
12425;SDS011;6277;49.824;9.562;2023-02-28T06:50:06;2.20;;;1.67;;
12425;SDS011;6277;49.824;9.562;2023-02-28T06:52:34;2.20;;;1.60;;
12425;SDS011;6277;49.824;9.562;2023-02-28T06:55:02;4.45;;;2.10;;
12425;SDS011;6277;49.824;9.562;2023-02-28T06:57:29;3.17;;;1.73;;
12425;SDS011;6277;49.824;9.562;2023-02-28T06:59:56;2.75;;;1.88;;
12425;SDS011;6277;49.824;9.562;2023-02-28T07:02:23;2.60;;;1.70;;
12425;SDS011;6277;49.824;9.562;2023-02-28T07:04:48;3.58;;;2.13;;
12425;SDS011;6277;49.824;9.562;2023-02-28T07:07:14;2.70;;;1.77;;
12425;SDS011;6277;49.824;9.562;2023-02-28T07:09:39;2.00;;;1.42;;
12425;SDS011;6277;49.824;9.562;2023-02-28T07:12:05;2.97;;;1.60;;
12425;SDS011;6277;49.824;9.562;2023-02-28T07:14:31;2.63;;;1.65;;
12425;SDS011;6277;49.824;9.562;2023-02-28T07:16:56;2.20;;;1.55;;
12425;SDS011;6277;49.824;9.562;2023-02-28T07:19:22;2.63;;;1.60;;
12425;SDS011;6277;49.824;9.562;2023-02-28T07:21:47;2.83;;;1.95;;
12425;SDS011;6277;49.824;9.562;2023-02-28T07:24:13;3.17;;;1.75;;
12425;SDS011;6277;49.824;9.562;2023-02-28T07:26:40;3.75;;;1.85;;
12425;SDS011;6277;49.824;9.562;2023-02-28T07:29:06;2.90;;;1.88;;
12425;SDS011;6277;49.824;9.562;2023-02-28T07:31:32;2.85;;;1.85;;
12425;SDS011;6277;49.824;9.562;2023-02-28T07:33:57;2.85;;;1.70;;
12425;SDS011;6277;49.824;9.562;2023-02-28T07:36:23;2.70;;;1.90;;
12425;SDS011;6277;49.824;9.562;2023-02-28T07:38:49;2.50;;;2.00;;
12425;SDS011;6277;49.824;9.562;2023-02-28T07:41:19;3.83;;;1.92;;
12425;SDS011;6277;49.824;9.562;2023-02-28T07:43:46;2.33;;;1.70;;
12425;SDS011;6277;49.824;9.562;2023-02-28T07:46:12;3.20;;;2.20;;
12425;SDS011;6277;49.824;9.562;2023-02-28T07:48:42;3.92;;;2.28;;
12425;SDS011;6277;49.824;9.562;2023-02-28T07:51:08;2.88;;;2.25;;
12425;SDS011;6277;49.824;9.562;2023-02-28T07:53:34;4.22;;;2.15;;
12425;SDS011;6277;49.824;9.562;2023-02-28T07:56:00;8.80;;;2.63;;
12425;SDS011;6277;49.824;9.562;2023-02-28T07:58:27;4.60;;;2.63;;
12425;SDS011;6277;49.824;9.562;2023-02-28T08:00:53;2.60;;;2.20;;
12425;SDS011;6277;49.824;9.562;2023-02-28T08:03:20;4.82;;;2.47;;
12425;SDS011;6277;49.824;9.562;2023-02-28T08:05:47;3.83;;;2.42;;
12425;SDS011;6277;49.824;9.562;2023-02-28T08:08:14;3.58;;;2.33;;
12425;SDS011;6277;49.824;9.562;2023-02-28T08:10:40;3.83;;;2.80;;
12425;SDS011;6277;49.824;9.562;2023-02-28T08:13:06;4.60;;;2.72;;
12425;SDS011;6277;49.824;9.562;2023-02-28T08:15:32;4.50;;;2.78;;
12425;SDS011;6277;49.824;9.562;2023-02-28T08:17:57;3.92;;;2.65;;
12425;SDS011;6277;49.824;9.562;2023-02-28T08:20:24;4.95;;;2.92;;
12425;SDS011;6277;49.824;9.562;2023-02-28T08:22:51;3.60;;;2.65;;
12425;SDS011;6277;49.824;9.562;2023-02-28T08:25:16;4.32;;;3.08;;
12425;SDS011;6277;49.824;9.562;2023-02-28T08:27:42;6.80;;;3.22;;
12425;SDS011;6277;49.824;9.562;2023-02-28T08:30:12;4.20;;;3.05;;
12425;SDS011;6277;49.824;9.562;2023-02-28T08:32:39;5.68;;;3.30;;
12425;SDS011;6277;49.824;9.562;2023-02-28T08:35:05;5.15;;;3.35;;
12425;SDS011;6277;49.824;9.562;2023-02-28T08:37:31;5.40;;;3.15;;
12425;SDS011;6277;49.824;9.562;2023-02-28T08:39:57;6.20;;;3.53;;
12425;SDS011;6277;49.824;9.562;2023-02-28T08:42:23;6.45;;;3.90;;
12425;SDS011;6277;49.824;9.562;2023-02-28T08:44:49;5.18;;;3.60;;
12425;SDS011;6277;49.824;9.562;2023-02-28T08:47:14;6.43;;;4.20;;
12425;SDS011;6277;49.824;9.562;2023-02-28T08:49:40;5.70;;;3.28;;
12425;SDS011;6277;49.824;9.562;2023-02-28T08:52:05;4.97;;;3.38;;
12425;SDS011;6277;49.824;9.562;2023-02-28T08:54:31;8.75;;;3.53;;
12425;SDS011;6277;49.824;9.562;2023-02-28T08:56:58;4.65;;;3.83;;
12425;SDS011;6277;49.824;9.562;2023-02-28T08:59:23;5.80;;;3.42;;
12425;SDS011;6277;49.824;9.562;2023-02-28T09:01:49;4.00;;;3.17;;
12425;SDS011;6277;49.824;9.562;2023-02-28T09:04:14;4.88;;;3.50;;
12425;SDS011;6277;49.824;9.562;2023-02-28T09:06:40;4.43;;;3.65;;
12425;SDS011;6277;49.824;9.562;2023-02-28T09:09:06;5.45;;;3.42;;
12425;SDS011;6277;49.824;9.562;2023-02-28T09:11:34;5.97;;;3.70;;
12425;SDS011;6277;49.824;9.562;2023-02-28T09:14:00;5.57;;;3.80;;
12425;SDS011;6277;49.824;9.562;2023-02-28T09:16:28;4.88;;;3.33;;
12425;SDS011;6277;49.824;9.562;2023-02-28T09:18:54;5.28;;;3.70;;
12425;SDS011;6277;49.824;9.562;2023-02-28T09:21:20;5.50;;;4.00;;
12425;SDS011;6277;49.824;9.562;2023-02-28T09:23:46;5.53;;;3.45;;
12425;SDS011;6277;49.824;9.562;2023-02-28T09:26:14;5.22;;;3.63;;
12425;SDS011;6277;49.824;9.562;2023-02-28T09:28:41;5.68;;;3.97;;
12425;SDS011;6277;49.824;9.562;2023-02-28T09:31:10;5.55;;;4.05;;
12425;SDS011;6277;49.824;9.562;2023-02-28T09:33:40;6.07;;;3.90;;
12425;SDS011;6277;49.824;9.562;2023-02-28T09:36:06;5.22;;;3.67;;
12425;SDS011;6277;49.824;9.562;2023-02-28T09:38:32;5.43;;;3.70;;
12425;SDS011;6277;49.824;9.562;2023-02-28T09:40:58;6.20;;;4.07;;
12425;SDS011;6277;49.824;9.562;2023-02-28T09:43:32;5.72;;;4.00;;
12425;SDS011;6277;49.824;9.562;2023-02-28T09:48:50;5.57;;;3.83;;
12425;SDS011;6277;49.824;9.562;2023-02-28T09:53:58;6.03;;;3.72;;
12425;SDS011;6277;49.824;9.562;2023-02-28T09:56:25;5.55;;;3.53;;
12425;SDS011;6277;49.824;9.562;2023-02-28T10:01:47;5.10;;;3.75;;
12425;SDS011;6277;49.824;9.562;2023-02-28T10:07:37;4.40;;;3.40;;
12425;SDS011;6277;49.824;9.562;2023-02-28T10:10:05;6.13;;;3.80;;
12425;SDS011;6277;49.824;9.562;2023-02-28T10:12:39;6.70;;;3.80;;
12425;SDS011;6277;49.824;9.562;2023-02-28T10:15:12;4.70;;;3.78;;
12425;SDS011;6277;49.824;9.562;2023-02-28T10:17:40;7.47;;;4.07;;
12425;SDS011;6277;49.824;9.562;2023-02-28T10:20:11;4.70;;;4.00;;
12425;SDS011;6277;49.824;9.562;2023-02-28T10:22:52;6.38;;;4.30;;
12425;SDS011;6277;49.824;9.562;2023-02-28T10:25:26;5.35;;;4.43;;
12425;SDS011;6277;49.824;9.562;2023-02-28T10:27:54;4.70;;;3.90;;
12425;SDS011;6277;49.824;9.562;2023-02-28T10:30:25;5.88;;;4.25;;
12425;SDS011;6277;49.824;9.562;2023-02-28T10:32:52;5.03;;;3.63;;
12425;SDS011;6277;49.824;9.562;2023-02-28T10:37:47;5.47;;;4.13;;
12425;SDS011;6277;49.824;9.562;2023-02-28T10:45:27;5.18;;;4.00;;
12425;SDS011;6277;49.824;9.562;2023-02-28T10:47:56;6.60;;;4.22;;
12425;SDS011;6277;49.824;9.562;2023-02-28T10:50:26;5.25;;;3.97;;
12425;SDS011;6277;49.824;9.562;2023-02-28T10:52:52;5.85;;;3.97;;
12425;SDS011;6277;49.824;9.562;2023-02-28T10:55:23;5.30;;;3.90;;
12425;SDS011;6277;49.824;9.562;2023-02-28T10:57:50;5.03;;;3.92;;
12425;SDS011;6277;49.824;9.562;2023-02-28T11:00:18;5.28;;;4.05;;
12425;SDS011;6277;49.824;9.562;2023-02-28T11:02:48;5.57;;;4.05;;
12425;SDS011;6277;49.824;9.562;2023-02-28T11:05:23;7.15;;;5.15;;
12425;SDS011;6277;49.824;9.562;2023-02-28T11:10:43;9.63;;;4.82;;
12425;SDS011;6277;49.824;9.562;2023-02-28T11:13:19;5.68;;;4.47;;
12425;SDS011;6277;49.824;9.562;2023-02-28T11:15:54;5.80;;;4.57;;
12425;SDS011;6277;49.824;9.562;2023-02-28T11:18:24;6.38;;;4.20;;
12425;SDS011;6277;49.824;9.562;2023-02-28T11:20:56;6.70;;;4.57;;
12425;SDS011;6277;49.824;9.562;2023-02-28T11:23:25;6.90;;;4.80;;
12425;SDS011;6277;49.824;9.562;2023-02-28T11:25:54;5.88;;;4.28;;
12425;SDS011;6277;49.824;9.562;2023-02-28T11:28:33;5.15;;;4.13;;
12425;SDS011;6277;49.824;9.562;2023-02-28T11:36:27;5.82;;;4.25;;
12425;SDS011;6277;49.824;9.562;2023-02-28T11:38:55;6.20;;;4.60;;
12425;SDS011;6277;49.824;9.562;2023-02-28T11:41:50;5.00;;;4.00;;
12425;SDS011;6277;49.824;9.562;2023-02-28T11:47:32;6.28;;;3.90;;
12425;SDS011;6277;49.824;9.562;2023-02-28T11:50:21;8.13;;;3.92;;
12425;SDS011;6277;49.824;9.562;2023-02-28T11:55:42;5.38;;;4.05;;
12425;SDS011;6277;49.824;9.562;2023-02-28T11:58:17;4.85;;;3.83;;
12425;SDS011;6277;49.824;9.562;2023-02-28T12:01:14;5.50;;;4.00;;
12425;SDS011;6277;49.824;9.562;2023-02-28T12:06:31;5.35;;;4.20;;
12425;SDS011;6277;49.824;9.562;2023-02-28T12:09:17;5.97;;;3.80;;
12425;SDS011;6277;49.824;9.562;2023-02-28T12:11:52;5.30;;;4.03;;
12425;SDS011;6277;49.824;9.562;2023-02-28T12:22:48;5.15;;;4.05;;
12425;SDS011;6277;49.824;9.562;2023-02-28T12:25:20;5.45;;;3.97;;
12425;SDS011;6277;49.824;9.562;2023-02-28T12:28:06;7.72;;;4.07;;
12425;SDS011;6277;49.824;9.562;2023-02-28T12:30:36;7.38;;;4.30;;
12425;SDS011;6277;49.824;9.562;2023-02-28T12:33:07;8.82;;;4.70;;
12425;SDS011;6277;49.824;9.562;2023-02-28T12:35:47;4.82;;;4.10;;
12425;SDS011;6277;49.824;9.562;2023-02-28T12:38:31;5.90;;;4.43;;
12425;SDS011;6277;49.824;9.562;2023-02-28T12:41:14;7.05;;;4.68;;
12425;SDS011;6277;49.824;9.562;2023-02-28T12:43:44;4.82;;;4.13;;
12425;SDS011;6277;49.824;9.562;2023-02-28T12:46:15;6.60;;;4.47;;
12425;SDS011;6277;49.824;9.562;2023-02-28T12:48:45;5.60;;;4.28;;
12425;SDS011;6277;49.824;9.562;2023-02-28T12:51:15;5.97;;;3.97;;
12425;SDS011;6277;49.824;9.562;2023-02-28T12:56:09;4.80;;;4.30;;
12425;SDS011;6277;49.824;9.562;2023-02-28T12:58:51;7.47;;;4.25;;
12425;SDS011;6277;49.824;9.562;2023-02-28T13:07:05;5.07;;;3.95;;
12425;SDS011;6277;49.824;9.562;2023-02-28T13:09:33;6.15;;;4.25;;
12425;SDS011;6277;49.824;9.562;2023-02-28T13:11:59;6.10;;;4.50;;
12425;SDS011;6277;49.824;9.562;2023-02-28T13:14:46;6.82;;;4.38;;
12425;SDS011;6277;49.824;9.562;2023-02-28T13:17:11;6.03;;;3.88;;
12425;SDS011;6277;49.824;9.562;2023-02-28T13:27:47;4.70;;;3.97;;
12425;SDS011;6277;49.824;9.562;2023-02-28T13:35:44;6.25;;;4.53;;
12425;SDS011;6277;49.824;9.562;2023-02-28T13:38:21;7.10;;;4.65;;
12425;SDS011;6277;49.824;9.562;2023-02-28T13:40:49;4.38;;;3.65;;
12425;SDS011;6277;49.824;9.562;2023-02-28T13:43:16;5.50;;;3.97;;
12425;SDS011;6277;49.824;9.562;2023-02-28T13:46:03;4.25;;;3.58;;
12425;SDS011;6277;49.824;9.562;2023-02-28T13:48:34;4.97;;;3.92;;
12425;SDS011;6277;49.824;9.562;2023-02-28T13:51:00;5.22;;;3.83;;
12425;SDS011;6277;49.824;9.562;2023-02-28T13:54:04;5.38;;;3.70;;
12425;SDS011;6277;49.824;9.562;2023-02-28T13:56:44;4.60;;;3.88;;
12425;SDS011;6277;49.824;9.562;2023-02-28T13:59:29;6.18;;;3.70;;
12425;SDS011;6277;49.824;9.562;2023-02-28T14:02:11;8.05;;;4.05;;
12425;SDS011;6277;49.824;9.562;2023-02-28T14:05:13;6.10;;;4.35;;
12425;SDS011;6277;49.824;9.562;2023-02-28T14:07:43;5.43;;;4.13;;
12425;SDS011;6277;49.824;9.562;2023-02-28T14:10:20;5.70;;;4.00;;
12425;SDS011;6277;49.824;9.562;2023-02-28T14:12:54;5.55;;;3.90;;
12425;SDS011;6277;49.824;9.562;2023-02-28T14:15:40;7.50;;;4.03;;
12425;SDS011;6277;49.824;9.562;2023-02-28T14:20:40;5.65;;;3.92;;
12425;SDS011;6277;49.824;9.562;2023-02-28T14:25:43;5.55;;;4.10;;
12425;SDS011;6277;49.824;9.562;2023-02-28T14:31:32;5.57;;;4.03;;
12425;SDS011;6277;49.824;9.562;2023-02-28T14:37:02;5.00;;;3.97;;
12425;SDS011;6277;49.824;9.562;2023-02-28T14:39:29;6.35;;;4.10;;
12425;SDS011;6277;49.824;9.562;2023-02-28T14:41:56;5.47;;;4.15;;
12425;SDS011;6277;49.824;9.562;2023-02-28T14:44:24;6.07;;;4.30;;
12425;SDS011;6277;49.824;9.562;2023-02-28T14:46:57;6.38;;;4.20;;
12425;SDS011;6277;49.824;9.562;2023-02-28T14:49:32;6.22;;;4.03;;
12425;SDS011;6277;49.824;9.562;2023-02-28T14:54:51;5.20;;;3.70;;
12425;SDS011;6277;49.824;9.562;2023-02-28T14:57:33;6.90;;;3.88;;
12425;SDS011;6277;49.824;9.562;2023-02-28T15:00:06;6.00;;;3.78;;
12425;SDS011;6277;49.824;9.562;2023-02-28T15:02:36;5.45;;;3.78;;
12425;SDS011;6277;49.824;9.562;2023-02-28T15:07:35;5.72;;;3.55;;
12425;SDS011;6277;49.824;9.562;2023-02-28T15:10:11;5.43;;;3.60;;
12425;SDS011;6277;49.824;9.562;2023-02-28T15:12:41;6.68;;;3.78;;
12425;SDS011;6277;49.824;9.562;2023-02-28T15:15:16;5.32;;;3.95;;
12425;SDS011;6277;49.824;9.562;2023-02-28T15:17:46;4.40;;;3.78;;
12425;SDS011;6277;49.824;9.562;2023-02-28T15:20:20;4.35;;;3.30;;
12425;SDS011;6277;49.824;9.562;2023-02-28T15:22:47;4.50;;;3.50;;
12425;SDS011;6277;49.824;9.562;2023-02-28T15:25:17;5.05;;;3.47;;
12425;SDS011;6277;49.824;9.562;2023-02-28T15:27:46;5.25;;;3.22;;
12425;SDS011;6277;49.824;9.562;2023-02-28T15:30:15;5.82;;;4.28;;
12425;SDS011;6277;49.824;9.562;2023-02-28T15:35:42;4.53;;;3.35;;
12425;SDS011;6277;49.824;9.562;2023-02-28T15:43:28;5.47;;;3.50;;
12425;SDS011;6277;49.824;9.562;2023-02-28T15:46:01;5.72;;;3.45;;
12425;SDS011;6277;49.824;9.562;2023-02-28T15:48:30;6.00;;;3.70;;
12425;SDS011;6277;49.824;9.562;2023-02-28T15:53:41;4.20;;;3.35;;
12425;SDS011;6277;49.824;9.562;2023-02-28T15:56:30;5.57;;;3.20;;
12425;SDS011;6277;49.824;9.562;2023-02-28T15:59:24;5.20;;;3.60;;
12425;SDS011;6277;49.824;9.562;2023-02-28T16:02:12;4.68;;;3.35;;
12425;SDS011;6277;49.824;9.562;2023-02-28T16:05:26;3.80;;;3.10;;
12425;SDS011;6277;49.824;9.562;2023-02-28T16:07:31;3.92;;;2.92;;
12425;SDS011;6277;49.824;9.562;2023-02-28T16:09:58;3.97;;;3.13;;
12425;SDS011;6277;49.824;9.562;2023-02-28T16:12:28;4.95;;;3.30;;
12425;SDS011;6277;49.824;9.562;2023-02-28T16:14:57;5.07;;;3.33;;
12425;SDS011;6277;49.824;9.562;2023-02-28T16:17:26;3.90;;;3.10;;
12425;SDS011;6277;49.824;9.562;2023-02-28T16:19:54;4.30;;;2.97;;
12425;SDS011;6277;49.824;9.562;2023-02-28T16:22:20;4.72;;;3.42;;
12425;SDS011;6277;49.824;9.562;2023-02-28T16:24:46;5.32;;;3.33;;
12425;SDS011;6277;49.824;9.562;2023-02-28T16:27:25;3.92;;;3.35;;
12425;SDS011;6277;49.824;9.562;2023-02-28T16:29:55;5.32;;;3.38;;
12425;SDS011;6277;49.824;9.562;2023-02-28T16:32:21;4.72;;;3.25;;
12425;SDS011;6277;49.824;9.562;2023-02-28T16:34:46;3.90;;;2.95;;
12425;SDS011;6277;49.824;9.562;2023-02-28T16:37:13;3.97;;;3.05;;
12425;SDS011;6277;49.824;9.562;2023-02-28T16:39:40;4.63;;;3.50;;
12425;SDS011;6277;49.824;9.562;2023-02-28T16:42:08;5.60;;;3.38;;
12425;SDS011;6277;49.824;9.562;2023-02-28T16:44:40;4.35;;;3.25;;
12425;SDS011;6277;49.824;9.562;2023-02-28T16:47:05;4.10;;;3.20;;
12425;SDS011;6277;49.824;9.562;2023-02-28T16:49:31;4.75;;;3.40;;
12425;SDS011;6277;49.824;9.562;2023-02-28T16:51:56;4.57;;;3.33;;
12425;SDS011;6277;49.824;9.562;2023-02-28T16:54:22;4.25;;;3.20;;
12425;SDS011;6277;49.824;9.562;2023-02-28T16:56:48;5.13;;;3.85;;
12425;SDS011;6277;49.824;9.562;2023-02-28T16:59:14;4.70;;;3.70;;
12425;SDS011;6277;49.824;9.562;2023-02-28T17:01:46;5.05;;;3.70;;
12425;SDS011;6277;49.824;9.562;2023-02-28T17:04:11;7.20;;;4.30;;
12425;SDS011;6277;49.824;9.562;2023-02-28T17:06:37;5.13;;;3.83;;
12425;SDS011;6277;49.824;9.562;2023-02-28T17:09:03;7.00;;;4.20;;
12425;SDS011;6277;49.824;9.562;2023-02-28T17:11:29;6.68;;;4.55;;
12425;SDS011;6277;49.824;9.562;2023-02-28T17:13:54;5.18;;;3.80;;
12425;SDS011;6277;49.824;9.562;2023-02-28T17:16:25;5.72;;;3.95;;
12425;SDS011;6277;49.824;9.562;2023-02-28T17:18:59;6.22;;;3.70;;
12425;SDS011;6277;49.824;9.562;2023-02-28T17:21:26;5.03;;;3.80;;
12425;SDS011;6277;49.824;9.562;2023-02-28T17:23:52;6.13;;;4.53;;
12425;SDS011;6277;49.824;9.562;2023-02-28T17:26:18;6.53;;;5.05;;
12425;SDS011;6277;49.824;9.562;2023-02-28T17:28:45;9.40;;;6.90;;
12425;SDS011;6277;49.824;9.562;2023-02-28T17:31:12;13.52;;;7.40;;
12425;SDS011;6277;49.824;9.562;2023-02-28T17:33:37;9.52;;;6.47;;
12425;SDS011;6277;49.824;9.562;2023-02-28T17:36:03;14.13;;;8.93;;